Time;durP1;ratioP1;P1;durP2;ratioP2;P2;SDS_P1;SDS_P2;PMS_P1;PMS_P2;Temp;Humidity;BMP_temperature;BMP_pressure;BME280_temperature;BME280_humidity;BME280_pressure;Samples;Min_cycle;Max_cycle;Signal;HPM_P1;HPM_P2
2022/09/22 00:00:42;;;;;;;4.25;2.28;;;10.30;82.50;;;;;;5057510;28;20024;-57
2022/09/22 00:03:08;;;;;;;4.65;2.28;;;10.30;82.80;;;;;;5051648;28;20029;-57
2022/09/22 00:05:38;;;;;;;4.35;2.30;;;10.30;83.00;;;;;;5046838;28;20112;-57
2022/09/22 00:08:04;;;;;;;4.20;2.22;;;10.30;83.10;;;;;;5046620;28;20094;-57
2022/09/22 00:10:29;;;;;;;4.25;2.10;;;10.20;83.30;;;;;;5041063;28;20485;-57
2022/09/22 00:12:55;;;;;;;3.92;2.50;;;10.20;83.50;;;;;;5048465;28;20021;-57
2022/09/22 00:15:20;;;;;;;3.20;2.25;;;10.20;83.70;;;;;;5047356;28;20504;-56
2022/09/22 00:17:46;;;;;;;3.28;1.80;;;10.20;83.80;;;;;;5041432;28;20029;-58
2022/09/22 00:20:12;;;;;;;3.30;1.92;;;10.10;84.00;;;;;;5031858;28;20068;-56
2022/09/22 00:22:38;;;;;;;3.58;1.98;;;10.10;84.30;;;;;;5051636;28;20028;-57
2022/09/22 00:25:05;;;;;;;2.97;2.28;;;10.10;84.60;;;;;;5050614;28;20021;-55
2022/09/22 00:27:31;;;;;;;3.67;2.28;;;10.00;84.90;;;;;;5047493;28;20025;-57
2022/09/22 00:29:57;;;;;;;2.92;2.15;;;10.00;85.60;;;;;;5047705;28;20078;-57
2022/09/22 00:32:22;;;;;;;2.92;2.20;;;10.00;85.20;;;;;;5046287;28;20033;-57
2022/09/22 00:34:53;;;;;;;4.43;2.00;;;10.00;85.40;;;;;;5049736;28;20059;-57
2022/09/22 00:37:18;;;;;;;3.17;1.90;;;10.00;85.60;;;;;;5048262;28;20052;-56
2022/09/22 00:39:44;;;;;;;3.50;2.00;;;9.90;85.80;;;;;;5045425;28;20063;-57
2022/09/22 00:42:11;;;;;;;4.38;1.95;;;9.90;86.00;;;;;;5045651;28;20049;-57
2022/09/22 00:44:43;;;;;;;2.63;1.85;;;9.90;86.20;;;;;;5046303;28;20052;-57
2022/09/22 00:47:38;;;;;;;3.47;2.20;;;9.90;86.40;;;;;;5048082;28;21063;-57
2022/09/22 00:50:16;;;;;;;3.13;2.00;;;9.80;86.60;;;;;;5045424;28;20025;-57
2022/09/22 00:53:06;;;;;;;2.63;1.73;;;9.80;86.80;;;;;;5048098;28;20105;-57
2022/09/22 00:55:54;;;;;;;2.72;1.73;;;9.70;86.90;;;;;;5063466;28;20031;-57
2022/09/22 00:58:29;;;;;;;3.33;2.20;;;9.70;87.20;;;;;;5044929;28;20032;-57
2022/09/22 01:00:55;;;;;;;3.67;2.10;;;9.60;87.40;;;;;;5045473;28;20104;-57
2022/09/22 01:03:22;;;;;;;4.50;2.50;;;9.60;87.60;;;;;;5045153;28;20485;-56
2022/09/22 01:05:50;;;;;;;3.78;2.55;;;9.60;87.70;;;;;;5047481;28;20441;-56
2022/09/22 01:08:18;;;;;;;2.65;2.05;;;9.60;87.90;;;;;;5049270;28;20021;-56
2022/09/22 01:10:44;;;;;;;3.45;1.90;;;9.60;88.00;;;;;;5049043;28;20052;-57
2022/09/22 01:13:31;;;;;;;3.50;2.47;;;9.60;88.20;;;;;;5044686;28;20039;-57
2022/09/22 01:16:03;;;;;;;2.35;1.80;;;9.60;88.30;;;;;;5047013;28;20028;-56
2022/09/22 01:18:52;;;;;;;4.88;1.90;;;9.60;88.40;;;;;;5046957;28;20025;-57
2022/09/22 01:21:45;;;;;;;2.78;1.90;;;9.60;88.50;;;;;;5044560;28;20554;-57
2022/09/22 01:24:42;;;;;;;3.63;1.95;;;9.50;88.80;;;;;;5047283;28;20025;-57
2022/09/22 01:27:22;;;;;;;3.65;2.20;;;9.40;89.10;;;;;;5042013;28;20035;-57
2022/09/22 01:29:50;;;;;;;2.92;1.77;;;9.40;89.60;;;;;;5045521;28;20388;-57
2022/09/22 01:32:28;;;;;;;3.10;1.73;;;9.40;89.70;;;;;;5041850;28;20107;-57
2022/09/22 01:35:08;;;;;;;2.33;1.65;;;9.40;90.00;;;;;;5045996;28;20543;-57
2022/09/22 01:37:56;;;;;;;3.88;1.98;;;9.40;90.00;;;;;;5046363;28;20110;-56
2022/09/22 01:40:41;;;;;;;2.42;1.60;;;9.40;90.10;;;;;;5047660;28;20058;-58
2022/09/22 01:43:13;;;;;;;2.38;2.08;;;9.40;90.20;;;;;;5041590;28;20025;-56
2022/09/22 01:45:42;;;;;;;2.78;1.63;;;9.40;90.30;;;;;;5047273;28;20013;-57
2022/09/22 01:48:19;;;;;;;2.83;1.77;;;9.30;90.30;;;;;;5045854;28;20447;-58
2022/09/22 01:50:52;;;;;;;2.65;1.80;;;9.30;90.40;;;;;;5044474;28;20041;-56
2022/09/22 01:53:22;;;;;;;3.38;1.80;;;9.30;90.50;;;;;;5047224;28;20055;-57
2022/09/22 01:55:51;;;;;;;;;;;9.30;90.60;;;;;;5046126;28;20021;-58
2022/09/22 01:58:23;;;;;;;4.63;1.97;;;9.20;90.50;;;;;;5047356;28;19954;-58
2022/09/22 02:00:55;;;;;;;2.53;1.48;;;9.20;90.70;;;;;;5041082;28;20028;-56
2022/09/22 02:03:35;;;;;;;2.20;1.77;;;9.20;90.80;;;;;;5048440;28;20029;-56
2022/09/22 02:06:25;;;;;;;2.17;1.70;;;9.20;90.80;;;;;;5046018;28;20162;-57
2022/09/22 02:09:00;;;;;;;3.20;1.88;;;9.20;90.90;;;;;;5063385;28;20389;-56
2022/09/22 02:11:25;;;;;;;2.40;1.50;;;9.20;91.00;;;;;;5048327;28;20036;-58
2022/09/22 02:13:51;;;;;;;2.90;1.63;;;9.10;91.00;;;;;;5047712;28;20438;-57
2022/09/22 02:16:22;;;;;;;3.97;1.55;;;9.20;91.10;;;;;;5045710;28;20033;-58
2022/09/22 02:18:52;;;;;;;2.78;1.52;;;9.10;91.20;;;;;;5046699;28;20025;-56
2022/09/22 02:21:19;;;;;;;2.67;1.50;;;9.10;91.30;;;;;;5056441;28;20384;-57
2022/09/22 02:23:46;;;;;;;2.38;1.35;;;9.00;91.30;;;;;;5043731;28;20524;-57
2022/09/22 02:26:22;;;;;;;3.22;1.55;;;9.00;91.40;;;;;;5045674;28;20074;-57
2022/09/22 02:28:50;;;;;;;2.25;1.63;;;9.00;91.50;;;;;;5043857;28;20025;-57
2022/09/22 02:31:16;;;;;;;2.88;1.67;;;9.00;91.50;;;;;;5043895;28;20034;-55
2022/09/22 02:33:41;;;;;;;3.10;1.52;;;8.90;91.60;;;;;;5041819;28;20043;-57
2022/09/22 02:36:15;;;;;;;2.50;1.65;;;8.90;91.70;;;;;;5053098;28;20025;-57
2022/09/22 02:38:59;;;;;;;2.92;1.48;;;8.90;91.80;;;;;;5042199;28;20496;-57
2022/09/22 02:41:43;;;;;;;1.90;1.33;;;8.90;91.80;;;;;;5047880;28;20057;-57
2022/09/22 02:44:18;;;;;;;2.72;1.80;;;8.90;91.90;;;;;;5047973;28;20489;-57
2022/09/22 02:46:51;;;;;;;2.08;1.50;;;8.80;91.90;;;;;;5051777;28;20029;-57
2022/09/22 02:49:17;;;;;;;2.17;1.63;;;8.80;92.00;;;;;;5047766;28;20036;-57
2022/09/22 02:51:45;;;;;;;2.47;1.75;;;8.80;92.10;;;;;;5044832;28;20026;-57
2022/09/22 02:54:13;;;;;;;4.88;1.40;;;8.80;92.10;;;;;;5048734;28;20048;-56
2022/09/22 02:56:42;;;;;;;2.60;1.50;;;8.80;92.20;;;;;;5051824;28;20017;-58
2022/09/22 02:59:10;;;;;;;3.33;1.50;;;8.80;92.30;;;;;;5048896;28;20523;-57
2022/09/22 03:01:37;;;;;;;3.00;1.40;;;8.70;92.30;;;;;;5045990;28;20465;-56
2022/09/22 03:04:03;;;;;;;3.58;1.80;;;8.70;92.30;;;;;;5050201;28;20071;-57
2022/09/22 03:06:29;;;;;;;4.28;1.75;;;8.70;92.40;;;;;;5048569;28;20049;-57
2022/09/22 03:08:55;;;;;;;3.42;1.48;;;8.70;92.40;;;;;;5051148;28;20267;-57
2022/09/22 03:11:21;;;;;;;2.92;1.30;;;8.70;92.50;;;;;;5048589;28;20107;-54
2022/09/22 03:13:46;;;;;;;2.40;1.65;;;8.70;92.60;;;;;;5049991;28;20108;-55
2022/09/22 03:16:12;;;;;;;2.13;1.60;;;8.70;92.60;;;;;;5051138;28;20074;-57
2022/09/22 03:18:37;;;;;;;2.03;1.38;;;8.70;92.70;;;;;;5045487;28;20558;-57
2022/09/22 03:21:03;;;;;;;2.28;1.77;;;8.60;92.70;;;;;;5047182;28;20029;-56
2022/09/22 03:23:28;;;;;;;2.97;1.25;;;8.70;92.80;;;;;;5049920;28;20024;-57
2022/09/22 03:25:54;;;;;;;2.95;1.40;;;8.60;92.90;;;;;;5034215;28;20079;-56
2022/09/22 03:28:20;;;;;;;2.05;1.40;;;8.60;92.90;;;;;;5051437;28;20059;-57
2022/09/22 03:30:48;;;;;;;2.05;1.40;;;8.60;93.00;;;;;;5049422;28;20033;-57
2022/09/22 03:33:13;;;;;;;2.03;1.45;;;8.60;93.10;;;;;;5043951;28;20025;-56
2022/09/22 03:35:39;;;;;;;1.67;1.13;;;8.60;93.20;;;;;;5051061;28;20044;-57
2022/09/22 03:38:04;;;;;;;1.52;1.20;;;8.60;93.20;;;;;;5046965;28;20029;-56
2022/09/22 03:40:30;;;;;;;1.70;1.30;;;8.60;93.30;;;;;;5049172;28;20048;-57
2022/09/22 03:42:56;;;;;;;1.83;1.40;;;8.60;93.30;;;;;;5048257;28;20045;-58
2022/09/22 03:45:22;;;;;;;2.97;1.30;;;8.60;93.40;;;;;;5049289;28;20557;-58
2022/09/22 03:47:48;;;;;;;1.65;1.17;;;8.50;93.40;;;;;;5050639;28;20029;-57
2022/09/22 03:50:13;;;;;;;1.73;1.25;;;8.50;93.50;;;;;;5050904;28;20029;-57
2022/09/22 03:52:41;;;;;;;2.90;1.20;;;8.50;93.50;;;;;;5047584;28;20107;-56
2022/09/22 03:55:08;;;;;;;1.80;1.10;;;8.50;93.60;;;;;;5050652;28;20491;-57
2022/09/22 03:57:34;;;;;;;2.28;1.30;;;8.50;93.60;;;;;;5045047;28;20108;-57
2022/09/22 04:00:01;;;;;;;2.75;1.17;;;8.40;93.70;;;;;;5050490;28;20024;-57
2022/09/22 04:02:27;;;;;;;1.83;1.63;;;8.40;93.80;;;;;;5050196;28;20021;-56
2022/09/22 04:04:52;;;;;;;1.15;0.90;;;8.30;93.80;;;;;;5048905;28;20029;-56
2022/09/22 04:07:18;;;;;;;1.48;0.90;;;8.30;93.90;;;;;;5047430;28;20029;-57
2022/09/22 04:09:43;;;;;;;1.77;1.10;;;8.30;94.00;;;;;;5046246;28;20024;-57
2022/09/22 04:12:09;;;;;;;1.65;1.00;;;8.30;94.00;;;;;;5049846;28;20025;-58
2022/09/22 04:14:35;;;;;;;1.50;1.00;;;8.30;94.10;;;;;;5048917;28;20385;-57
2022/09/22 04:17:00;;;;;;;1.20;0.98;;;8.30;94.20;;;;;;5048614;28;20017;-56
2022/09/22 04:19:26;;;;;;;1.98;0.80;;;8.20;94.20;;;;;;5045802;28;20028;-58
2022/09/22 04:21:52;;;;;;;2.42;1.25;;;8.30;94.20;;;;;;5034545;28;20052;-56
2022/09/22 04:24:17;;;;;;;3.03;1.52;;;8.20;94.30;;;;;;5047332;28;20028;-56
2022/09/22 04:26:43;;;;;;;2.08;1.55;;;8.20;94.30;;;;;;5045764;28;20083;-56
2022/09/22 04:29:08;;;;;;;1.48;1.27;;;8.20;94.40;;;;;;5048230;28;20029;-56
2022/09/22 04:31:34;;;;;;;1.92;1.55;;;8.20;94.40;;;;;;5049796;28;20037;-57
2022/09/22 04:33:59;;;;;;;3.80;1.52;;;8.20;94.40;;;;;;5045174;28;20035;-57
2022/09/22 04:36:25;;;;;;;1.88;1.25;;;8.20;94.50;;;;;;5046305;28;20040;-56
2022/09/22 04:38:50;;;;;;;1.90;0.98;;;8.10;94.50;;;;;;5048142;28;20029;-57
2022/09/22 04:41:16;;;;;;;3.22;2.00;;;8.10;94.60;;;;;;5049780;28;20610;-56
2022/09/22 04:43:42;;;;;;;2.95;1.77;;;8.10;94.60;;;;;;5042670;28;20044;-57
2022/09/22 04:46:07;;;;;;;3.85;1.67;;;8.10;94.60;;;;;;5049685;28;20024;-56
2022/09/22 04:48:36;;;;;;;3.05;1.90;;;8.10;94.70;;;;;;5049805;28;20028;-56
2022/09/22 04:51:02;;;;;;;2.22;1.50;;;8.10;94.70;;;;;;5049264;28;20124;-57
2022/09/22 04:53:27;;;;;;;2.92;2.30;;;8.10;94.70;;;;;;5049426;28;20544;-56
2022/09/22 04:55:53;;;;;;;3.00;1.95;;;8.00;94.70;;;;;;5046579;28;20021;-58
2022/09/22 04:58:18;;;;;;;2.08;1.70;;;8.00;94.80;;;;;;5047994;28;20025;-56
2022/09/22 05:00:44;;;;;;;2.88;1.58;;;8.00;94.80;;;;;;5042584;28;20025;-57
2022/09/22 05:03:11;;;;;;;2.88;1.80;;;8.00;94.80;;;;;;5049575;28;20028;-57
2022/09/22 05:05:37;;;;;;;2.53;1.92;;;8.00;94.90;;;;;;5050549;28;20056;-57
2022/09/22 05:08:04;;;;;;;2.17;1.58;;;8.00;95.00;;;;;;5051935;28;20508;-57
2022/09/22 05:10:31;;;;;;;1.60;1.40;;;8.00;95.00;;;;;;5052629;28;20021;-56
2022/09/22 05:12:57;;;;;;;1.70;1.40;;;7.90;95.00;;;;;;5052838;28;20469;-57
2022/09/22 05:15:23;;;;;;;2.80;1.92;;;7.90;95.00;;;;;;5052514;28;20043;-58
2022/09/22 05:17:51;;;;;;;2.20;1.55;;;7.90;95.10;;;;;;5052863;28;20017;-57
2022/09/22 05:20:18;;;;;;;1.67;1.20;;;7.90;95.10;;;;;;5051022;28;20158;-57
2022/09/22 05:22:44;;;;;;;1.13;1.02;;;7.90;95.10;;;;;;5052711;28;20516;-57
2022/09/22 05:25:11;;;;;;;2.00;1.33;;;7.90;95.10;;;;;;5052321;28;20025;-55
2022/09/22 05:27:46;;;;;;;1.70;1.00;;;7.90;95.20;;;;;;5052492;28;20120;-56
2022/09/22 05:30:12;;;;;;;1.92;1.30;;;7.90;95.20;;;;;;5051161;28;20395;-54
2022/09/22 05:32:37;;;;;;;1.85;1.15;;;7.80;95.50;;;;;;5051054;28;20033;-57
2022/09/22 05:35:03;;;;;;;2.17;1.45;;;7.90;95.60;;;;;;5052282;28;20027;-58
2022/09/22 05:37:29;;;;;;;2.83;1.30;;;7.80;95.30;;;;;;5051154;28;20029;-57
2022/09/22 05:39:54;;;;;;;2.50;1.60;;;7.80;95.30;;;;;;5049889;28;20025;-56
2022/09/22 05:42:22;;;;;;;2.53;1.55;;;7.80;95.30;;;;;;5050205;28;20110;-57
2022/09/22 05:44:48;;;;;;;1.48;1.27;;;7.80;95.30;;;;;;5051299;28;20017;-56
2022/09/22 05:47:13;;;;;;;2.20;1.38;;;7.80;95.30;;;;;;5041961;28;20033;-56
2022/09/22 05:49:39;;;;;;;2.63;1.50;;;7.80;95.40;;;;;;5047241;28;20033;-57
2022/09/22 05:52:10;;;;;;;1.58;1.40;;;7.80;95.40;;;;;;5052237;28;20147;-57
2022/09/22 05:54:36;;;;;;;1.80;1.40;;;7.90;95.40;;;;;;5051610;28;20063;-57
2022/09/22 05:57:02;;;;;;;1.85;1.50;;;7.90;95.40;;;;;;5052376;28;20044;-57
2022/09/22 05:59:27;;;;;;;3.00;1.73;;;7.90;95.40;;;;;;5052093;28;20476;-58
2022/09/22 06:01:53;;;;;;;2.85;1.80;;;7.90;95.50;;;;;;5052254;28;20052;-59
2022/09/22 06:04:18;;;;;;;3.08;1.60;;;7.90;95.50;;;;;;5050920;28;20029;-56
2022/09/22 06:06:47;;;;;;;3.80;1.88;;;7.90;95.50;;;;;;5050948;28;20021;-56
2022/09/22 06:09:12;;;;;;;2.35;1.48;;;7.90;95.50;;;;;;5045875;28;20107;-55
2022/09/22 06:11:38;;;;;;;2.13;1.52;;;7.90;95.50;;;;;;5038263;28;20477;-56
2022/09/22 06:14:03;;;;;;;3.33;1.70;;;8.00;95.50;;;;;;5039190;28;20134;-56
2022/09/22 06:16:32;;;;;;;2.63;1.58;;;8.00;95.50;;;;;;5041897;28;20017;-56
2022/09/22 06:18:57;;;;;;;2.80;1.70;;;8.00;95.40;;;;;;5039636;28;20024;-56
2022/09/22 06:21:24;;;;;;;2.22;1.65;;;8.10;95.40;;;;;;5050811;28;20030;-55
2022/09/22 06:23:50;;;;;;;2.30;1.80;;;8.00;95.40;;;;;;5048321;28;20043;-55
2022/09/22 06:26:16;;;;;;;2.45;2.00;;;8.10;95.40;;;;;;5045849;28;20477;-54
2022/09/22 06:28:41;;;;;;;2.40;1.90;;;8.10;95.30;;;;;;5044043;28;20105;-56
2022/09/22 06:31:07;;;;;;;2.83;2.10;;;8.10;95.40;;;;;;5041032;28;20031;-56
2022/09/22 06:33:32;;;;;;;3.53;2.15;;;8.10;95.40;;;;;;5040679;28;20029;-56
2022/09/22 06:35:59;;;;;;;3.45;1.75;;;8.10;95.40;;;;;;5052419;28;20092;-55
2022/09/22 06:38:25;;;;;;;3.13;1.30;;;8.20;95.50;;;;;;5050391;28;20036;-56
2022/09/22 06:40:50;;;;;;;2.10;1.42;;;8.20;95.50;;;;;;5050496;28;20053;-56
2022/09/22 06:43:21;;;;;;;2.33;1.42;;;8.30;95.50;;;;;;5053249;28;20043;-56
2022/09/22 06:45:51;;;;;;;2.50;1.67;;;8.30;95.60;;;;;;5044303;28;20037;-56
2022/09/22 06:48:18;;;;;;;3.40;2.92;;;8.30;95.50;;;;;;5054439;28;20021;-56
2022/09/22 06:50:47;;;;;;;5.25;3.13;;;8.30;95.60;;;;;;5054647;28;20037;-55
2022/09/22 06:53:13;;;;;;;6.72;4.95;;;8.40;95.70;;;;;;5063997;28;20437;-56
2022/09/22 06:55:42;;;;;;;6.57;4.88;;;8.40;95.90;;;;;;5048600;28;20056;-56
2022/09/22 06:58:09;;;;;;;5.70;4.47;;;8.40;96.10;;;;;;5046980;28;20496;-55
2022/09/22 07:00:35;;;;;;;5.00;4.10;;;8.50;96.20;;;;;;5042875;28;20033;-56
2022/09/22 07:03:25;;;;;;;10.38;7.07;;;8.50;96.30;;;;;;5054023;28;20429;-56
2022/09/22 07:05:59;;;;;;;11.85;8.25;;;8.70;97.10;;;;;;5038689;28;20061;-56
2022/09/22 07:08:24;;;;;;;14.45;9.10;;;8.70;98.10;;;;;;5045861;28;20025;-56
2022/09/22 07:10:55;;;;;;;11.95;8.82;;;8.80;98.90;;;;;;5051211;28;20534;-56
2022/09/22 07:13:21;;;;;;;12.88;9.93;;;8.90;99.70;;;;;;5043945;28;20036;-55
2022/09/22 07:15:47;;;;;;;11.50;9.80;;;8.90;99.90;;;;;;5047222;28;20017;-56
2022/09/22 07:18:13;;;;;;;15.63;10.00;;;9.00;99.90;;;;;;5047153;28;20071;-55
2022/09/22 07:20:39;;;;;;;16.10;10.55;;;9.10;99.90;;;;;;5049222;28;20032;-55
2022/09/22 07:23:10;;;;;;;11.60;9.30;;;9.20;99.90;;;;;;5037438;28;20030;-56
2022/09/22 07:25:36;;;;;;;14.40;11.43;;;9.30;99.90;;;;;;5048939;28;20066;-54
2022/09/22 07:28:05;;;;;;;13.50;11.48;;;9.30;99.90;;;;;;5047829;28;20033;-56
2022/09/22 07:30:31;;;;;;;14.25;11.80;;;9.40;99.90;;;;;;5051869;28;20044;-56
2022/09/22 07:32:56;;;;;;;15.55;11.20;;;9.50;99.90;;;;;;5035279;28;20045;-55
2022/09/22 07:35:22;;;;;;;13.90;10.80;;;9.60;99.90;;;;;;5052363;28;20056;-56
2022/09/22 07:37:55;;;;;;;13.32;11.02;;;9.70;99.90;;;;;;5054725;28;20028;-56
2022/09/22 07:40:21;;;;;;;16.35;11.18;;;9.80;99.90;;;;;;5048655;28;20099;-56
2022/09/22 07:42:50;;;;;;;11.60;10.27;;;9.80;99.90;;;;;;5046170;28;20033;-55
2022/09/22 07:45:15;;;;;;;12.52;9.80;;;10.00;99.90;;;;;;5053026;28;20048;-56
2022/09/22 07:50:29;;;;;;;14.50;9.38;;;10.10;99.90;;;;;;5044406;28;20032;-56
2022/09/22 07:52:55;;;;;;;10.13;8.30;;;10.20;99.90;;;;;;5053962;28;20021;-60
2022/09/22 07:55:23;;;;;;;13.48;10.00;;;10.30;99.90;;;;;;5051242;28;20021;-56
2022/09/22 07:58:07;;;;;;;15.43;10.75;;;10.40;99.90;;;;;;5053395;28;20530;-55
2022/09/22 08:00:35;;;;;;;15.45;11.07;;;10.50;99.90;;;;;;5052004;28;20021;-56
2022/09/22 08:03:00;;;;;;;16.77;11.60;;;10.60;99.90;;;;;;5053762;28;20040;-56
2022/09/22 08:05:27;;;;;;;14.60;11.35;;;10.70;99.90;;;;;;5053343;28;20408;-56
2022/09/22 08:07:57;;;;;;;13.35;10.85;;;10.80;99.90;;;;;;5052827;28;20388;-57
2022/09/22 08:10:23;;;;;;;;;;;10.90;99.90;;;;;;5040689;28;20047;-56
2022/09/22 08:12:52;;;;;;;14.57;10.70;;;11.00;99.90;;;;;;5052600;28;20382;-56
2022/09/22 08:15:21;;;;;;;14.75;10.13;;;11.10;99.90;;;;;;5051790;28;20024;-54
2022/09/22 08:17:47;;;;;;;13.75;10.10;;;11.20;99.90;;;;;;5053200;28;20024;-56
2022/09/22 08:20:12;;;;;;;14.88;10.20;;;11.30;99.90;;;;;;5053317;28;20017;-56
2022/09/22 08:22:38;;;;;;;16.27;9.90;;;11.40;99.90;;;;;;5052200;28;20115;-56
2022/09/22 08:25:04;;;;;;;12.93;9.85;;;11.50;99.80;;;;;;5052895;28;20033;-56
2022/09/22 08:27:29;;;;;;;10.55;8.82;;;11.60;99.60;;;;;;5052756;28;20044;-56
2022/09/22 08:29:55;;;;;;;15.27;9.55;;;11.70;99.40;;;;;;5051077;28;20476;-55
2022/09/22 08:32:21;;;;;;;11.07;8.35;;;11.90;99.00;;;;;;5042759;28;20033;-56
2022/09/22 08:34:46;;;;;;;16.27;9.18;;;12.00;98.60;;;;;;5046906;28;20018;-55
2022/09/22 08:37:12;;;;;;;14.07;7.82;;;12.10;98.40;;;;;;5042085;28;20033;-56
2022/09/22 08:39:38;;;;;;;12.30;8.38;;;12.20;98.30;;;;;;5048788;28;20532;-56
2022/09/22 08:42:19;;;;;;;8.52;6.40;;;12.20;98.20;;;;;;5042633;28;20060;-57
2022/09/22 08:44:59;;;;;;;10.18;6.60;;;12.40;98.10;;;;;;5043210;28;20230;-56
2022/09/22 08:53:42;;;;;;;13.15;8.60;;;12.60;97.80;;;;;;5036240;28;20044;-57
2022/09/22 08:56:17;;;;;;;12.70;8.50;;;12.80;97.50;;;;;;5034994;28;20013;-57
2022/09/22 08:58:55;;;;;;;16.30;9.38;;;12.90;96.90;;;;;;5040725;28;20021;-56
2022/09/22 09:01:35;;;;;;;13.48;8.27;;;13.10;95.80;;;;;;5047750;28;20147;-58
2022/09/22 09:04:56;;;;;;;10.82;7.63;;;13.20;95.30;;;;;;5047991;28;20021;-57
2022/09/22 09:07:52;;;;;;;12.90;8.82;;;13.30;95.40;;;;;;5021607;28;20056;-56
2022/09/22 09:10:31;;;;;;;13.57;9.48;;;13.40;95.20;;;;;;5041611;28;20027;-56
2022/09/22 09:13:12;;;;;;;13.90;8.38;;;13.60;95.40;;;;;;5048078;28;20090;-57
2022/09/22 09:15:50;;;;;;;10.70;9.18;;;13.70;95.00;;;;;;5038761;28;20100;-57
2022/09/22 09:18:23;;;;;;;10.88;8.35;;;13.80;94.50;;;;;;5048474;28;20097;-56
2022/09/22 09:20:50;;;;;;;14.07;9.73;;;13.90;93.60;;;;;;5035735;28;20063;-56
2022/09/22 09:23:28;;;;;;;13.32;8.93;;;14.00;93.40;;;;;;5038972;28;20455;-57
2022/09/22 09:25:55;;;;;;;16.27;10.52;;;14.20;93.40;;;;;;5061687;28;20025;-56
2022/09/22 09:28:30;;;;;;;11.68;7.53;;;14.20;93.50;;;;;;5065982;28;20489;-56
2022/09/22 09:31:07;;;;;;;11.07;7.30;;;14.30;92.80;;;;;;5049934;28;20028;-57
2022/09/22 09:33:43;;;;;;;13.10;9.43;;;14.40;92.20;;;;;;5039153;28;20029;-57
2022/09/22 09:36:15;;;;;;;12.00;8.18;;;14.50;92.40;;;;;;5051330;28;20017;-57
2022/09/22 09:38:50;;;;;;;9.15;7.32;;;14.60;91.00;;;;;;5051069;28;20485;-57
2022/09/22 09:41:21;;;;;;;15.23;7.60;;;14.80;91.00;;;;;;5050818;28;20452;-57
2022/09/22 09:43:47;;;;;;;13.13;8.40;;;14.90;91.00;;;;;;5034984;28;20025;-56
2022/09/22 09:46:37;;;;;;;12.65;7.53;;;15.00;89.90;;;;;;5032616;28;20017;-57
2022/09/22 09:49:04;;;;;;;9.55;8.55;;;15.10;89.40;;;;;;5041896;28;20029;-57
2022/09/22 09:51:34;;;;;;;10.40;7.40;;;15.20;90.20;;;;;;5053930;28;20021;-56
2022/09/22 09:54:04;;;;;;;11.63;8.80;;;15.40;89.70;;;;;;5051972;28;20025;-57
2022/09/22 09:56:31;;;;;;;12.00;9.20;;;15.50;89.10;;;;;;5051381;28;20025;-57
2022/09/22 10:01:45;;;;;;;10.60;8.45;;;15.80;88.40;;;;;;5033417;28;20547;-56
2022/09/22 10:04:36;;;;;;;11.93;7.47;;;15.90;88.60;;;;;;5036659;28;20032;-57
2022/09/22 10:07:14;;;;;;;11.70;7.90;;;16.10;88.00;;;;;;5051867;28;20267;-56
2022/09/22 10:09:40;;;;;;;10.02;7.85;;;16.30;87.10;;;;;;5051757;28;20635;-57
2022/09/22 10:12:20;;;;;;;13.18;7.65;;;16.50;86.60;;;;;;5037484;28;20068;-57
2022/09/22 10:14:51;;;;;;;11.43;8.18;;;16.70;84.00;;;;;;5051319;28;20075;-57
2022/09/22 10:17:37;;;;;;;10.80;8.77;;;16.80;82.40;;;;;;5038784;28;20021;-57
2022/09/22 10:20:25;;;;;;;10.20;8.77;;;16.90;81.10;;;;;;5050044;28;20032;-57
2022/09/22 10:22:52;;;;;;;12.05;8.90;;;17.20;80.50;;;;;;5039526;28;20417;-57
2022/09/22 10:25:21;;;;;;;7.22;6.10;;;17.40;79.70;;;;;;5037704;28;20026;-57
2022/09/22 10:28:13;;;;;;;8.90;8.00;;;17.60;78.80;;;;;;5039455;28;20033;-57
2022/09/22 10:30:39;;;;;;;10.80;8.15;;;17.90;78.00;;;;;;5047029;28;20029;-58
2022/09/22 10:33:20;;;;;;;9.55;6.40;;;18.20;76.50;;;;;;5039798;28;20541;-57
2022/09/22 10:35:54;;;;;;;7.07;5.32;;;18.50;75.00;;;;;;5039517;28;20037;-57
2022/09/22 10:38:20;;;;;;;5.93;4.85;;;19.30;75.30;;;;;;5042659;28;20025;-57
2022/09/22 10:41:06;;;;;;;5.20;4.68;;;20.00;74.40;;;;;;5042797;28;20052;-58
2022/09/22 10:43:53;;;;;;;6.13;4.28;;;20.90;72.80;;;;;;5038177;28;20378;-57
2022/09/22 10:46:39;;;;;;;5.97;3.83;;;23.40;64.40;;;;;;5050056;28;20036;-58
2022/09/22 10:49:57;;;;;;;4.20;3.35;;;26.00;55.70;;;;;;5035535;28;20493;-58
2022/09/22 10:52:42;;;;;;;3.80;2.03;;;27.60;52.00;;;;;;5043442;28;20033;-58
2022/09/22 10:55:33;;;;;;;5.35;3.25;;;30.10;49.40;;;;;;5040177;28;20445;-58
2022/09/22 10:58:08;;;;;;;3.53;2.25;;;31.90;42.70;;;;;;5030545;28;20024;-58
2022/09/22 11:00:43;;;;;;;4.28;2.15;;;32.30;40.90;;;;;;5058460;28;20028;-58
2022/09/22 11:03:30;;;;;;;3.35;2.97;;;33.20;39.20;;;;;;5060227;28;20047;-58
2022/09/22 11:12:27;;;;;;;3.35;1.70;;;37.50;36.10;;;;;;5039401;28;20079;-58
2022/09/22 11:15:17;;;;;;;4.65;1.60;;;39.20;33.40;;;;;;5037007;28;20013;-58
2022/09/22 11:18:07;;;;;;;1.30;1.05;;;39.90;32.20;;;;;;5048987;28;20017;-58
2022/09/22 11:20:46;;;;;;;1.60;1.10;;;41.20;31.70;;;;;;5042526;28;20025;-59
2022/09/22 11:23:20;;;;;;;2.90;1.85;;;40.90;30.10;;;;;;5036394;28;20057;-59
2022/09/22 11:25:53;;;;;;;2.45;1.80;;;40.30;29.00;;;;;;5043958;28;20554;-59
2022/09/22 11:28:45;;;;;;;2.42;1.52;;;38.80;29.10;;;;;;5045445;28;20493;-58
2022/09/22 11:31:39;;;;;;;2.63;0.90;;;37.80;30.20;;;;;;5048489;28;20033;-58
2022/09/22 11:34:39;;;;;;;2.95;1.13;;;37.90;30.10;;;;;;5035714;28;20719;-58
2022/09/22 11:37:26;;;;;;;1.98;1.15;;;38.30;30.10;;;;;;5035971;28;20025;-58
2022/09/22 11:40:26;;;;;;;1.00;0.80;;;39.20;29.20;;;;;;5035984;28;20025;-59
2022/09/22 11:43:18;;;;;;;1.00;0.90;;;40.30;29.70;;;;;;5036023;28;20087;-58
2022/09/22 11:46:00;;;;;;;1.52;1.15;;;42.00;29.30;;;;;;5014221;28;20099;-58
2022/09/22 11:48:46;;;;;;;2.80;1.10;;;43.50;28.00;;;;;;5044339;28;20032;-59
2022/09/22 11:51:27;;;;;;;3.63;1.13;;;41.70;27.80;;;;;;5037171;28;20021;-59
2022/09/22 11:54:11;;;;;;;1.75;0.80;;;40.50;27.80;;;;;;5048548;28;20049;-59
2022/09/22 11:56:46;;;;;;;1.00;0.60;;;40.90;28.50;;;;;;5047526;28;20064;-59
2022/09/22 11:59:37;;;;;;;1.13;0.70;;;41.30;27.40;;;;;;5049932;28;20053;-58
2022/09/22 12:02:28;;;;;;;2.30;0.90;;;40.40;27.80;;;;;;5042018;28;20018;-58
2022/09/22 12:05:09;;;;;;;1.17;0.80;;;40.50;27.00;;;;;;5041313;28;20070;-58
2022/09/22 12:07:47;;;;;;;2.90;0.98;;;39.70;28.30;;;;;;5066819;28;20488;-59
2022/09/22 12:10:31;;;;;;;2.30;1.30;;;40.70;28.00;;;;;;5035230;28;20486;-58
2022/09/22 12:12:56;;;;;;;1.95;1.00;;;41.40;27.00;;;;;;5039424;28;20029;-59
2022/09/22 12:15:39;;;;;;;1.98;0.90;;;41.00;27.30;;;;;;5050456;28;20032;-59
2022/09/22 12:18:10;;;;;;;2.08;1.13;;;41.80;27.50;;;;;;5064789;28;20017;-59
2022/09/22 12:20:55;;;;;;;2.28;1.00;;;42.50;26.60;;;;;;5048723;28;20064;-59
2022/09/22 12:23:31;;;;;;;2.22;1.23;;;40.40;26.90;;;;;;5048041;28;20436;-58
2022/09/22 12:26:02;;;;;;;2.20;0.90;;;40.50;26.60;;;;;;5049100;28;20029;-58
2022/09/22 12:28:30;;;;;;;1.63;0.80;;;39.50;27.30;;;;;;5047586;28;20029;-58
2022/09/22 12:31:14;;;;;;;1.65;0.85;;;38.80;27.60;;;;;;5036532;28;20108;-58
2022/09/22 12:33:55;;;;;;;1.65;0.80;;;38.10;27.70;;;;;;5038798;28;20028;-58
2022/09/22 12:36:37;;;;;;;1.35;0.80;;;37.90;28.20;;;;;;5048727;28;20497;-58
2022/09/22 12:39:17;;;;;;;1.38;0.90;;;39.40;28.00;;;;;;5046122;28;20021;-58
2022/09/22 12:41:46;;;;;;;2.40;0.85;;;39.40;26.90;;;;;;5036584;28;20044;-58
2022/09/22 12:44:16;;;;;;;1.92;0.90;;;37.40;27.90;;;;;;5035049;28;20052;-58
2022/09/22 12:46:42;;;;;;;1.88;0.90;;;36.30;28.60;;;;;;5034363;28;20044;-58
2022/09/22 12:49:12;;;;;;;2.10;0.98;;;34.90;29.60;;;;;;5039554;28;20354;-58
2022/09/22 12:51:38;;;;;;;1.13;0.80;;;33.90;29.90;;;;;;5042123;28;20075;-58
2022/09/22 12:54:21;;;;;;;2.55;0.80;;;34.00;29.80;;;;;;5052327;28;20493;-58
2022/09/22 12:57:05;;;;;;;0.93;0.80;;;34.70;29.00;;;;;;5042529;28;20536;-57
2022/09/22 12:59:36;;;;;;;2.10;1.20;;;34.10;29.40;;;;;;5047184;28;20032;-57
2022/09/22 13:02:14;;;;;;;1.15;0.90;;;33.70;29.40;;;;;;5046186;28;20512;-57
2022/09/22 13:05:00;;;;;;;1.50;0.73;;;33.50;29.80;;;;;;5041156;28;20029;-58
2022/09/22 13:07:36;;;;;;;2.00;0.90;;;34.30;29.80;;;;;;5051399;28;20025;-57
2022/09/22 13:10:23;;;;;;;1.65;0.80;;;33.90;29.70;;;;;;5052055;28;20044;-58
2022/09/22 13:13:01;;;;;;;2.13;0.83;;;32.80;29.90;;;;;;5044046;28;20032;-57
2022/09/22 13:15:45;;;;;;;1.17;0.82;;;32.40;30.60;;;;;;5035216;28;20009;-57
2022/09/22 13:18:37;;;;;;;2.78;1.48;;;33.20;30.40;;;;;;5044967;28;20397;-57
2022/09/22 13:21:12;;;;;;;1.52;0.80;;;33.40;30.50;;;;;;5034039;28;20513;-58
2022/09/22 13:23:50;;;;;;;3.10;1.85;;;32.70;30.20;;;;;;5049701;28;20025;-57
2022/09/22 13:26:21;;;;;;;2.22;1.40;;;31.90;30.90;;;;;;5050598;28;20025;-57
2022/09/22 13:29:09;;;;;;;2.75;1.58;;;30.30;32.00;;;;;;5045527;28;20572;-57
2022/09/22 13:31:44;;;;;;;1.58;1.13;;;29.20;33.80;;;;;;5052013;28;20025;-58
2022/09/22 13:34:29;;;;;;;3.00;1.13;;;28.70;34.30;;;;;;5039420;28;20027;-57